createdAt,value
2019-03-25T00:00:45.547Z,57.36
2019-03-25T00:05:50.825Z,57.47
2019-03-25T00:10:54.756Z,58.46
2019-03-25T00:15:57.913Z,58.74
2019-03-25T00:21:00.931Z,59.07
2019-03-25T00:26:03.888Z,59.03
2019-03-25T00:31:07.889Z,59.44
2019-03-25T00:36:10.830Z,59.11
2019-03-25T00:41:14.507Z,59.47
2019-03-25T00:46:17.943Z,60.28
2019-03-25T00:51:21.657Z,59.95
2019-03-25T00:56:25.075Z,60.08
2019-03-25T01:01:28.791Z,61.03
2019-03-25T01:06:32.393Z,60.84
2019-03-25T01:11:36.006Z,61.34
2019-03-25T01:16:39.890Z,61.17
2019-03-25T01:21:44.339Z,60.92
2019-03-25T01:26:47.926Z,61.25
2019-03-25T01:31:51.505Z,61.26
2019-03-25T01:36:55.516Z,61.09
2019-03-25T01:41:58.757Z,60.91
2019-03-25T01:47:01.788Z,61.54
2019-03-25T01:52:05.326Z,61.71
2019-03-25T01:57:08.863Z,61.58
2019-03-25T02:02:11.839Z,61.48
2019-03-25T02:07:15.473Z,62.17
2019-03-25T02:12:18.459Z,61.74
2019-03-25T02:17:21.407Z,62.21
2019-03-25T02:22:24.419Z,62.17
2019-03-25T02:27:27.575Z,62.80
2019-03-25T02:32:30.889Z,63.17
2019-03-25T02:37:34.766Z,63.04
2019-03-25T02:42:38.117Z,63.20
2019-03-25T02:47:41.091Z,63.92
2019-03-25T02:52:44.081Z,63.49
2019-03-25T02:57:47.540Z,63.70
2019-03-25T03:02:50.840Z,63.75
2019-03-25T03:07:54.403Z,63.83
2019-03-25T03:12:58.025Z,63.45
2019-03-25T03:18:00.986Z,63.49
2019-03-25T03:23:04.072Z,63.29
2019-03-25T03:28:07.856Z,63.02
2019-03-25T03:33:10.842Z,63.21
2019-03-25T03:38:14.078Z,63.16
2019-03-25T03:43:17.868Z,63.09
2019-03-25T03:48:21.120Z,62.79
2019-03-25T03:53:24.514Z,62.58
2019-03-25T03:58:32.113Z,62.50
2019-03-25T04:03:35.115Z,62.49
2019-03-25T04:08:39.013Z,62.25
2019-03-25T04:13:42.117Z,62.48
2019-03-25T04:18:46.429Z,62.58
2019-03-25T04:23:50.006Z,62.87
2019-03-25T04:28:54.195Z,63.06
2019-03-25T04:33:57.213Z,63.37
2019-03-25T04:39:00.208Z,63.47
2019-03-25T04:44:04.081Z,63.22
2019-03-25T04:49:07.592Z,63.46
2019-03-25T04:54:10.782Z,63.06
2019-03-25T04:59:13.892Z,62.82
2019-03-25T05:04:17.237Z,62.71
2019-03-25T05:09:21.079Z,62.61
2019-03-25T05:14:24.055Z,62.25
2019-03-25T05:19:26.978Z,62.25
2019-03-25T05:24:29.984Z,61.95
2019-03-25T05:29:33.663Z,61.98
2019-03-25T05:34:36.658Z,61.96
2019-03-25T05:39:40.269Z,62.30
2019-03-25T06:06:01.182Z,62.26
2019-03-25T06:11:04.964Z,62.26
2019-03-25T06:16:08.690Z,62.26
2019-03-25T06:21:12.070Z,72.86
2019-03-25T06:26:15.379Z,74.14
2019-03-25T06:31:18.367Z,73.67
2019-03-25T06:36:21.588Z,73.69
2019-03-25T06:41:25.738Z,74.42
2019-03-25T06:46:28.761Z,100.00
2019-03-25T06:51:39.576Z,76.72
2019-03-25T06:56:43.430Z,76.72
2019-03-25T07:01:46.483Z,76.17
2019-03-25T07:06:49.726Z,77.01
2019-03-25T07:11:53.878Z,76.69
2019-03-25T07:16:56.937Z,76.58
2019-03-25T07:22:00.029Z,78.09
2019-03-25T07:27:04.023Z,77.69
2019-03-25T07:32:09.055Z,77.99
2019-03-25T07:40:50.936Z,78.31
2019-03-25T07:45:53.933Z,78.31
2019-03-25T07:50:57.605Z,78.27
2019-03-25T07:56:01.817Z,77.77
2019-03-25T08:01:04.940Z,77.88
2019-03-25T08:06:07.948Z,78.39
2019-03-25T08:11:11.601Z,78.24
2019-03-25T08:16:15.263Z,78.00
2019-03-25T08:21:18.668Z,78.28
2019-03-25T08:26:21.750Z,77.93
2019-03-25T08:31:25.400Z,77.45
2019-03-25T08:36:28.589Z,76.49
2019-03-25T08:41:31.744Z,76.95
2019-03-25T08:46:35.108Z,76.49
2019-03-25T08:51:40.196Z,76.48
2019-03-25T08:56:44.342Z,76.20
2019-03-25T09:01:48.016Z,75.94
2019-03-25T09:06:51.339Z,74.90
2019-03-25T09:11:55.172Z,75.13
2019-03-25T09:17:00.533Z,75.41
2019-03-25T09:22:05.160Z,75.05
2019-03-25T09:27:08.827Z,74.35
2019-03-25T09:32:12.487Z,74.16
2019-03-25T09:37:16.550Z,73.13
2019-03-25T09:42:19.603Z,73.80
2019-03-25T09:47:23.613Z,71.81
2019-03-25T09:52:38.074Z,70.78
2019-03-25T09:57:33.766Z,70.28
2019-03-25T10:02:36.840Z,69.86
2019-03-25T10:07:39.939Z,69.86
2019-03-25T10:12:43.701Z,70.01
2019-03-25T10:17:46.831Z,69.53
2019-03-25T10:22:50.155Z,67.48
2019-03-25T10:27:54.145Z,68.03
2019-03-25T10:32:57.392Z,67.46
2019-03-25T10:38:00.857Z,67.47
2019-03-25T10:43:04.134Z,67.29
2019-03-25T10:48:07.691Z,67.75
2019-03-25T10:53:11.499Z,66.81
2019-03-25T10:58:14.508Z,64.80
2019-03-25T11:03:18.486Z,60.25
2019-03-25T11:08:23.157Z,56.27
2019-03-25T11:13:27.003Z,55.98
2019-03-25T11:18:30.315Z,55.06
2019-03-25T11:23:33.716Z,55.20
2019-03-25T11:28:36.721Z,53.90
2019-03-25T11:33:39.881Z,55.99
2019-03-25T11:38:42.959Z,57.97
2019-03-25T11:43:46.664Z,59.07
2019-03-25T21:31:20.353Z,59.74
2019-03-25T21:36:24.096Z,60.99
2019-03-25T21:41:27.463Z,61.36
2019-03-25T21:46:31.490Z,61.58
2019-03-25T21:51:34.598Z,61.81
2019-03-25T21:56:38.589Z,62.09
2019-03-25T22:01:42.297Z,62.39
2019-03-25T22:06:45.296Z,62.65
2019-03-25T22:11:49.226Z,62.88
2019-03-25T22:16:52.611Z,63.06
2019-03-25T22:21:56.641Z,63.31
2019-03-25T22:27:00.068Z,63.48
2019-03-25T22:32:03.451Z,63.67
2019-03-25T22:37:06.583Z,63.87
2019-03-25T22:42:09.924Z,63.95
2019-03-25T22:47:13.612Z,64.27
2019-03-25T22:52:17.110Z,64.47
2019-03-25T22:57:20.984Z,64.64
2019-03-25T23:02:24.054Z,65.02
2019-03-25T23:07:27.746Z,65.41
2019-03-25T23:12:31.373Z,65.50
2019-03-25T23:17:34.439Z,65.85
2019-03-25T23:22:37.704Z,66.28
2019-03-25T23:27:41.424Z,66.45
2019-03-25T23:32:45.573Z,66.67
2019-03-25T23:37:48.959Z,66.76
2019-03-25T23:42:52.024Z,67.25
2019-03-25T23:47:55.157Z,67.45
2019-03-25T23:52:58.195Z,67.43
2019-03-25T23:58:01.123Z,67.59
